createdAt,value
2019-03-18T00:00:10.117Z,11.64
2019-03-18T00:02:40.576Z,11.64
2019-03-18T00:05:11.154Z,11.53
2019-03-18T00:07:41.601Z,11.56
2019-03-18T00:10:12.293Z,11.57
2019-03-18T00:12:42.803Z,11.54
2019-03-18T00:15:13.425Z,11.54
2019-03-18T00:17:43.910Z,11.54
2019-03-18T00:20:14.612Z,11.54
2019-03-18T00:22:45.076Z,11.52
2019-03-18T00:25:15.687Z,11.46
2019-03-18T00:27:46.342Z,11.46
2019-03-18T00:30:17.868Z,11.41
2019-03-18T00:32:48.320Z,11.40
2019-03-18T00:35:18.939Z,11.36
2019-03-18T00:37:49.384Z,11.38
2019-03-18T00:40:20.110Z,11.36
2019-03-18T00:42:50.574Z,10.84
2019-03-18T00:45:21.120Z,10.70
2019-03-18T00:47:51.671Z,10.86
2019-03-18T00:50:22.096Z,10.95
2019-03-18T00:52:52.582Z,11.02
2019-03-18T00:55:23.050Z,11.04
2019-03-18T00:57:53.541Z,11.04
2019-03-18T01:00:24.035Z,11.04
2019-03-18T01:02:54.521Z,11.01
2019-03-18T01:05:24.971Z,11.02
2019-03-18T01:07:55.464Z,10.97
2019-03-18T01:10:25.919Z,10.96
2019-03-18T01:12:56.409Z,10.98
2019-03-18T01:15:28.620Z,10.92
2019-03-18T01:17:59.051Z,10.90
2019-03-18T01:20:29.540Z,10.89
2019-03-18T01:23:00.024Z,10.87
2019-03-18T01:25:30.516Z,10.85
2019-03-18T01:28:00.991Z,10.84
2019-03-18T01:30:31.490Z,10.82
2019-03-18T01:33:01.946Z,10.81
2019-03-18T01:35:32.449Z,10.79
2019-03-18T01:38:02.901Z,10.80
2019-03-18T01:40:33.667Z,10.80
2019-03-18T01:43:04.154Z,10.80
2019-03-18T01:45:40.550Z,10.78
2019-03-18T01:48:06.913Z,10.76
2019-03-18T01:50:37.419Z,10.75
2019-03-18T01:53:07.875Z,10.72
2019-03-18T01:55:38.327Z,10.71
2019-03-18T01:58:08.826Z,10.66
2019-03-18T02:00:39.511Z,10.66
2019-03-18T02:03:09.962Z,10.63
2019-03-18T02:05:40.449Z,10.58
2019-03-18T02:08:10.932Z,10.55
2019-03-18T02:10:41.481Z,10.45
2019-03-18T02:13:11.935Z,10.49
2019-03-18T02:15:52.870Z,10.46
2019-03-18T02:18:14.573Z,10.34
2019-03-18T02:20:45.164Z,10.37
2019-03-18T02:23:15.633Z,10.44
2019-03-18T02:25:46.131Z,10.43
2019-03-18T02:28:16.587Z,10.26
2019-03-18T02:30:47.049Z,10.38
2019-03-18T02:33:17.560Z,10.45
2019-03-18T02:35:48.090Z,10.50
2019-03-18T02:38:18.546Z,10.50
2019-03-18T02:40:49.049Z,10.49
2019-03-18T02:43:19.540Z,10.49
2019-03-18T02:45:50.024Z,10.50
2019-03-18T02:48:20.482Z,10.41
2019-03-18T02:50:50.979Z,10.29
2019-03-18T02:53:21.430Z,10.30
2019-03-18T02:55:51.901Z,10.33
2019-03-18T02:58:22.409Z,10.25
2019-03-18T03:00:52.919Z,10.20
2019-03-18T03:03:23.432Z,10.22
2019-03-18T03:05:53.964Z,10.19
2019-03-18T03:08:24.430Z,10.20
2019-03-18T03:10:54.897Z,10.17
2019-03-18T03:13:25.423Z,10.13
2019-03-18T03:15:55.891Z,10.07
2019-03-18T03:18:26.349Z,10.03
2019-03-18T03:20:56.844Z,9.98
2019-03-18T03:23:27.300Z,9.81
2019-03-18T03:25:57.801Z,9.71
2019-03-18T03:28:28.303Z,9.62
2019-03-18T03:30:58.763Z,9.58
2019-03-18T03:33:29.254Z,9.52
2019-03-18T03:35:59.712Z,9.44
2019-03-18T03:38:30.221Z,9.39
2019-03-18T03:41:00.687Z,9.32
2019-03-18T03:43:31.346Z,9.25
2019-03-18T03:46:01.859Z,9.26
2019-03-18T03:48:32.321Z,9.20
2019-03-18T03:51:02.813Z,9.14
2019-03-18T03:53:33.306Z,9.10
2019-03-18T03:56:03.758Z,9.08
2019-03-18T03:58:34.354Z,9.14
2019-03-18T04:01:04.820Z,9.00
2019-03-18T04:03:38.802Z,9.07
2019-03-18T04:06:07.634Z,8.78
2019-03-18T04:08:38.310Z,8.68
2019-03-18T04:11:09.159Z,8.82
2019-03-18T04:13:39.620Z,8.97
2019-03-18T04:16:10.117Z,8.84
2019-03-18T04:18:40.572Z,8.67
2019-03-18T04:21:11.089Z,8.84
2019-03-18T04:23:41.580Z,8.98
2019-03-18T04:26:12.082Z,9.09
2019-03-18T04:28:42.540Z,9.12
2019-03-18T04:31:12.995Z,9.20
2019-03-18T04:33:43.493Z,9.25
2019-03-18T04:36:14.002Z,9.25
2019-03-18T04:38:44.493Z,9.25
2019-03-18T04:41:14.949Z,9.27
2019-03-18T04:43:45.419Z,9.29
2019-03-18T04:46:15.930Z,9.30
2019-03-18T04:48:46.402Z,9.30
2019-03-18T04:51:16.861Z,9.27
2019-03-18T04:53:47.357Z,9.35
2019-03-18T04:56:17.856Z,9.37
2019-03-18T04:58:48.309Z,9.41
2019-03-18T05:01:18.805Z,9.48
2019-03-18T05:03:49.317Z,9.57
2019-03-18T05:06:19.768Z,9.65
2019-03-18T05:08:50.267Z,9.65
2019-03-18T05:11:20.726Z,9.71
2019-03-18T05:13:51.300Z,9.86
2019-03-18T05:16:21.889Z,10.06
2019-03-18T05:18:52.359Z,10.22
2019-03-18T05:21:22.817Z,10.09
2019-03-18T05:23:53.418Z,10.35
2019-03-18T05:26:23.909Z,10.63
2019-03-18T05:28:54.371Z,10.74
2019-03-18T05:31:24.842Z,10.89
2019-03-18T05:33:55.312Z,11.02
2019-03-18T05:36:25.807Z,11.05
2019-03-18T05:38:56.326Z,11.11
2019-03-18T05:41:26.794Z,11.27
2019-03-18T05:43:57.312Z,11.40
2019-03-18T05:46:27.779Z,11.54
2019-03-18T05:48:58.276Z,11.75
2019-03-18T05:51:28.741Z,12.01
2019-03-18T05:53:59.257Z,12.04
2019-03-18T05:56:29.730Z,12.23
2019-03-18T05:59:00.247Z,12.28
2019-03-18T06:01:30.765Z,12.42
2019-03-18T06:04:01.275Z,12.59
2019-03-18T06:06:31.774Z,12.67
2019-03-18T06:09:02.306Z,12.78
2019-03-18T06:11:32.783Z,12.84
2019-03-18T06:14:03.438Z,12.92
2019-03-18T06:16:33.915Z,12.56
2019-03-18T06:19:04.442Z,13.06
2019-03-18T06:21:35.006Z,13.11
2019-03-18T06:24:06.561Z,13.19
2019-03-18T06:26:37.107Z,13.27
2019-03-18T06:29:08.247Z,13.35
2019-03-18T06:31:40.239Z,13.50
2019-03-18T06:34:10.733Z,13.78
2019-03-18T06:36:41.302Z,13.97
2019-03-18T06:39:11.843Z,14.13
2019-03-18T06:41:42.327Z,14.12
2019-03-18T06:44:13.344Z,14.34
2019-03-18T06:46:43.818Z,14.54
2019-03-18T06:49:14.418Z,14.77
2019-03-18T06:51:44.941Z,14.92
2019-03-18T06:54:15.520Z,15.15
2019-03-18T06:56:46.151Z,15.30
2019-03-18T06:59:16.670Z,15.48
2019-03-18T07:01:47.191Z,15.59
2019-03-18T07:04:17.741Z,15.75
2019-03-18T07:06:48.257Z,16.02
2019-03-18T07:09:18.744Z,16.21
2019-03-18T07:11:49.361Z,16.14
2019-03-18T07:14:20.908Z,16.24
2019-03-18T07:16:51.399Z,16.42
2019-03-18T07:19:21.888Z,16.51
2019-03-18T07:21:52.394Z,16.51
2019-03-18T07:24:22.905Z,16.69
2019-03-18T07:26:53.458Z,16.94
2019-03-18T07:29:23.924Z,16.90
2019-03-18T07:31:54.452Z,17.13
2019-03-18T07:34:24.975Z,17.22
2019-03-18T07:36:55.509Z,17.24
2019-03-18T07:39:26.040Z,17.27
2019-03-18T07:41:56.598Z,17.29
2019-03-18T07:44:27.100Z,16.95
2019-03-18T07:46:58.713Z,16.98
2019-03-18T07:49:29.618Z,17.10
2019-03-18T07:52:00.095Z,17.19
2019-03-18T07:54:32.914Z,17.24
2019-03-18T07:57:03.007Z,17.25
2019-03-18T07:59:33.547Z,17.37
2019-03-18T08:02:04.157Z,17.54
2019-03-18T08:04:37.564Z,17.44
2019-03-18T08:07:06.839Z,17.56
2019-03-18T08:09:37.379Z,17.61
2019-03-18T08:12:07.870Z,17.73
2019-03-18T08:14:38.381Z,17.82
2019-03-18T08:17:08.860Z,17.89
2019-03-18T08:19:39.377Z,18.00
2019-03-18T08:22:09.988Z,18.00
2019-03-18T08:24:40.557Z,17.99
2019-03-18T08:27:11.023Z,18.08
2019-03-18T08:29:41.479Z,18.07
2019-03-18T08:32:12.125Z,18.18
2019-03-18T08:34:42.581Z,18.07
2019-03-18T08:37:13.087Z,18.12
2019-03-18T08:39:43.600Z,18.15
2019-03-18T08:42:14.074Z,18.13
2019-03-18T08:44:44.610Z,18.10
2019-03-18T08:47:15.144Z,18.22
2019-03-18T08:49:45.647Z,18.31
2019-03-18T08:52:16.152Z,18.42
2019-03-18T08:54:46.701Z,18.52
2019-03-18T08:57:17.181Z,18.65
2019-03-18T08:59:47.655Z,18.76
2019-03-18T09:02:18.285Z,18.76
2019-03-18T09:04:48.755Z,18.84
2019-03-18T09:07:19.261Z,18.92
2019-03-18T09:09:49.721Z,19.00
2019-03-18T09:12:20.255Z,19.10
2019-03-18T09:14:50.716Z,19.13
2019-03-18T09:17:21.276Z,19.12
2019-03-18T09:19:51.765Z,19.20
2019-03-18T09:22:25.046Z,19.26
2019-03-18T09:24:55.648Z,19.24
2019-03-18T09:27:26.941Z,19.25
2019-03-18T09:29:57.449Z,19.23
2019-03-18T09:32:28.023Z,19.33
2019-03-18T09:34:58.494Z,19.36
2019-03-18T09:37:28.959Z,19.32
2019-03-18T09:39:59.479Z,19.33
2019-03-18T09:42:29.966Z,19.43
2019-03-18T09:45:00.505Z,19.44
2019-03-18T09:47:31.099Z,19.50
2019-03-18T09:50:01.847Z,19.61
2019-03-18T09:52:32.364Z,19.68
2019-03-18T09:55:02.950Z,19.75
2019-03-18T09:57:33.444Z,19.82
2019-03-18T10:00:04.004Z,19.89
2019-03-18T10:02:34.510Z,19.96
2019-03-18T10:05:05.346Z,20.05
2019-03-18T10:07:35.863Z,20.11
2019-03-18T10:10:07.442Z,20.17
2019-03-18T10:12:37.957Z,20.24
2019-03-18T10:15:10.137Z,20.30
2019-03-18T10:17:40.631Z,20.33
2019-03-18T10:20:11.268Z,20.40
2019-03-18T10:22:41.802Z,20.44
2019-03-18T10:25:12.435Z,20.44
2019-03-18T10:27:42.962Z,20.46
2019-03-18T10:30:13.669Z,20.44
2019-03-18T10:32:44.312Z,20.40
2019-03-18T10:35:15.078Z,20.39
2019-03-18T10:37:45.671Z,20.41
2019-03-18T10:40:19.257Z,20.40
2019-03-18T10:42:50.052Z,20.45
2019-03-18T10:45:20.701Z,20.55
2019-03-18T10:47:51.193Z,20.60
2019-03-18T10:50:21.995Z,20.60
2019-03-18T10:52:52.543Z,20.64
2019-03-18T10:55:22.993Z,20.68
2019-03-18T10:57:53.586Z,20.68
2019-03-18T11:00:24.250Z,20.73
2019-03-18T11:02:54.764Z,20.73
2019-03-18T11:05:25.338Z,20.71
2019-03-18T11:07:55.805Z,20.70
2019-03-18T11:10:26.267Z,20.76
2019-03-18T11:12:57.135Z,20.80
2019-03-18T11:15:27.615Z,20.90
2019-03-18T11:17:58.092Z,20.93
2019-03-18T11:20:28.608Z,20.71
2019-03-18T11:22:59.133Z,20.96
2019-03-18T11:25:29.642Z,20.96
2019-03-18T11:28:00.240Z,21.01
2019-03-18T11:30:30.954Z,21.05
2019-03-18T11:33:01.542Z,21.04
2019-03-18T11:35:32.055Z,21.07
2019-03-18T11:38:05.091Z,21.09
2019-03-18T11:40:35.868Z,21.15
2019-03-18T11:43:06.334Z,21.19
2019-03-18T11:45:36.891Z,21.24
2019-03-18T11:48:07.482Z,21.32
2019-03-18T11:50:38.093Z,21.39
2019-03-18T11:53:14.279Z,21.41
2019-03-18T11:55:40.765Z,21.47
2019-03-18T11:58:11.292Z,21.42
2019-03-18T12:00:41.841Z,21.46
2019-03-18T12:03:12.758Z,21.44
2019-03-18T12:05:43.232Z,21.56
2019-03-18T12:08:13.824Z,21.71
2019-03-18T12:10:46.298Z,21.75
2019-03-18T12:13:16.713Z,21.79
2019-03-18T12:15:50.356Z,21.81
2019-03-18T12:18:21.028Z,21.82
2019-03-18T12:20:51.535Z,21.91
2019-03-18T12:23:22.300Z,21.95
2019-03-18T12:25:52.888Z,21.98
2019-03-18T12:28:23.444Z,21.99
2019-03-18T12:30:54.020Z,22.04
2019-03-18T12:33:24.587Z,22.13
2019-03-18T12:35:55.635Z,22.18
2019-03-18T12:38:26.200Z,22.25
2019-03-18T12:40:56.694Z,22.26
2019-03-18T12:43:27.190Z,22.27
2019-03-18T12:45:58.508Z,22.27
2019-03-18T12:48:29.071Z,22.22
2019-03-18T12:50:59.616Z,22.09
2019-03-18T12:53:30.170Z,22.02
2019-03-18T12:56:01.711Z,21.96
2019-03-18T12:58:32.282Z,21.95
2019-03-18T13:01:12.520Z,21.90
2019-03-18T13:03:36.129Z,21.94
2019-03-18T13:06:06.660Z,22.00
2019-03-18T13:08:37.180Z,22.04
2019-03-18T13:11:07.666Z,22.10
2019-03-18T13:13:38.185Z,22.21
2019-03-18T13:16:08.679Z,22.31
2019-03-18T13:18:40.993Z,22.37
2019-03-18T13:21:11.458Z,22.48
2019-03-18T13:23:42.024Z,22.54
2019-03-18T13:26:12.543Z,22.59
2019-03-18T13:28:43.064Z,22.63
2019-03-18T13:31:13.568Z,22.72
2019-03-18T13:33:44.084Z,22.83
2019-03-18T13:36:16.330Z,22.90
2019-03-18T13:38:46.796Z,22.99
2019-03-18T13:41:17.371Z,23.05
2019-03-18T13:43:47.825Z,22.62
2019-03-18T13:46:18.708Z,23.19
2019-03-18T13:48:49.243Z,23.25
2019-03-18T13:51:21.225Z,23.29
2019-03-18T13:53:51.978Z,22.79
2019-03-18T13:56:22.498Z,23.34
2019-03-18T13:58:52.961Z,23.41
2019-03-18T14:01:23.517Z,23.45
2019-03-18T14:03:53.999Z,23.46
2019-03-18T14:06:24.626Z,23.46
2019-03-18T14:08:55.160Z,23.52
2019-03-18T14:11:25.752Z,23.54
2019-03-18T14:13:56.411Z,23.54
2019-03-18T14:16:26.948Z,23.54
2019-03-18T14:18:57.453Z,23.50
2019-03-18T14:21:33.259Z,23.51
2019-03-18T14:24:00.115Z,23.51
2019-03-18T14:26:30.672Z,23.51
2019-03-18T14:29:01.267Z,23.56
2019-03-18T14:31:32.947Z,23.58
2019-03-18T14:34:03.433Z,23.59
2019-03-18T14:36:33.949Z,23.66
2019-03-18T14:39:05.377Z,23.70
2019-03-18T14:41:35.903Z,23.78
2019-03-18T14:44:06.438Z,23.84
2019-03-18T14:46:37.115Z,23.91
2019-03-18T14:49:07.602Z,23.96
2019-03-18T14:51:45.550Z,23.91
2019-03-18T14:54:10.458Z,23.93
2019-03-18T14:56:40.949Z,23.86
2019-03-18T14:59:11.609Z,23.86
2019-03-18T15:01:42.162Z,23.82
2019-03-18T15:04:12.759Z,23.79
2019-03-18T15:06:43.238Z,23.79
2019-03-18T15:09:13.702Z,23.76
2019-03-18T15:11:44.220Z,23.69
2019-03-18T15:14:14.744Z,23.68
2019-03-18T15:16:45.250Z,23.62
2019-03-18T15:19:15.715Z,23.54
2019-03-18T15:21:57.640Z,23.51
2019-03-18T15:24:18.544Z,23.47
2019-03-18T15:26:49.098Z,23.43
2019-03-18T15:29:19.570Z,23.44
2019-03-18T15:31:52.255Z,23.37
2019-03-18T15:34:22.326Z,23.30
2019-03-18T15:36:52.864Z,23.26
2019-03-18T15:39:23.315Z,23.18
2019-03-18T15:41:53.926Z,23.14
2019-03-18T15:44:24.398Z,23.06
2019-03-18T15:46:54.904Z,22.98
2019-03-18T15:49:25.412Z,22.97
2019-03-18T15:51:55.924Z,22.92
2019-03-18T15:54:26.400Z,22.87
2019-03-18T15:56:56.893Z,22.27
2019-03-18T15:59:27.398Z,22.75
2019-03-18T16:01:57.842Z,22.64
2019-03-18T16:04:28.332Z,22.56
2019-03-18T16:06:58.792Z,22.45
2019-03-18T16:09:29.525Z,22.39
2019-03-18T16:11:59.989Z,22.28
2019-03-18T16:14:30.504Z,22.20
2019-03-18T16:17:02.348Z,22.13
2019-03-18T16:19:32.999Z,22.02
2019-03-18T16:22:03.488Z,21.96
2019-03-18T16:24:33.983Z,21.83
2019-03-18T16:27:04.479Z,21.78
2019-03-18T16:29:34.987Z,21.57
2019-03-18T16:32:11.228Z,21.54
2019-03-18T16:34:37.783Z,21.46
2019-03-18T16:37:08.231Z,21.36
2019-03-18T16:39:38.689Z,21.26
2019-03-18T16:42:09.186Z,21.18
2019-03-18T16:44:39.644Z,21.05
2019-03-18T16:47:10.153Z,20.98
2019-03-18T16:49:40.612Z,20.25
2019-03-18T16:52:11.104Z,20.80
2019-03-18T16:54:41.581Z,20.07
2019-03-18T16:57:12.107Z,20.59
2019-03-18T16:59:42.568Z,20.52
2019-03-18T17:02:13.078Z,20.42
2019-03-18T17:04:43.615Z,20.33
2019-03-18T17:07:14.083Z,20.24
2019-03-18T17:09:44.562Z,20.17
2019-03-18T17:12:15.017Z,19.97
2019-03-18T17:14:45.512Z,19.87
2019-03-18T17:17:15.969Z,19.86
2019-03-18T17:19:46.467Z,19.79
2019-03-18T17:22:16.979Z,19.75
2019-03-18T17:24:49.127Z,19.65
2019-03-18T17:27:19.822Z,19.57
2019-03-18T17:29:50.334Z,19.44
2019-03-18T17:32:20.775Z,19.40
2019-03-18T17:34:51.273Z,19.28
2019-03-18T17:37:21.777Z,19.16
2019-03-18T17:39:52.223Z,19.12
2019-03-18T17:42:22.715Z,18.97
2019-03-18T17:44:53.215Z,18.90
2019-03-18T17:47:23.664Z,18.62
2019-03-18T17:49:54.164Z,18.59
2019-03-18T17:52:24.653Z,18.47
2019-03-18T17:54:55.178Z,18.47
2019-03-18T17:57:25.708Z,18.34
2019-03-18T17:59:56.200Z,18.32
2019-03-18T18:02:26.708Z,18.19
2019-03-18T18:05:02.779Z,18.22
2019-03-18T18:07:29.416Z,18.11
2019-03-18T18:09:59.875Z,18.13
2019-03-18T18:12:30.377Z,18.13
2019-03-18T18:15:00.913Z,18.02
2019-03-18T18:17:31.475Z,18.04
2019-03-18T18:20:01.938Z,17.96
2019-03-18T18:22:32.439Z,17.92
2019-03-18T18:25:02.905Z,17.84
2019-03-18T18:27:33.355Z,17.64
2019-03-18T18:30:04.085Z,17.63
2019-03-18T18:32:34.531Z,17.63
2019-03-18T18:35:05.485Z,17.60
2019-03-18T18:37:36.004Z,17.56
2019-03-18T18:40:06.839Z,17.51
2019-03-18T18:42:37.334Z,17.41
2019-03-18T18:45:08.039Z,17.37
2019-03-18T18:47:38.545Z,17.28
2019-03-18T18:50:09.801Z,17.29
2019-03-18T18:52:40.261Z,17.20
2019-03-18T18:55:10.882Z,17.21
2019-03-18T18:57:41.452Z,17.17
2019-03-18T19:00:14.148Z,17.10
2019-03-18T19:02:44.891Z,16.91
2019-03-18T19:05:15.493Z,16.91
2019-03-18T19:07:46.140Z,16.89
2019-03-18T19:10:16.801Z,16.83
2019-03-18T19:12:47.236Z,16.77
2019-03-18T19:15:19.498Z,16.64
2019-03-18T19:17:50.110Z,16.56
2019-03-18T19:20:20.768Z,16.55
2019-03-18T19:22:51.359Z,16.53
2019-03-18T19:25:21.850Z,16.45
2019-03-18T19:27:52.489Z,16.42
2019-03-18T19:30:22.947Z,16.38
2019-03-18T19:32:53.403Z,16.30
2019-03-18T19:35:23.905Z,16.29
2019-03-18T19:37:54.425Z,16.22
2019-03-18T19:40:24.911Z,16.19
2019-03-18T19:42:55.361Z,16.08
2019-03-18T19:45:25.984Z,16.02
2019-03-18T19:47:56.459Z,16.00
2019-03-18T19:50:26.918Z,15.79
2019-03-18T19:52:57.424Z,15.75
2019-03-18T19:55:27.925Z,15.75
2019-03-18T19:57:58.488Z,15.74
2019-03-18T20:00:29.078Z,15.66
2019-03-18T20:02:59.635Z,15.61
2019-03-18T20:05:30.136Z,15.56
2019-03-18T20:08:00.596Z,15.53
2019-03-18T20:10:31.199Z,15.43
2019-03-18T20:13:04.554Z,15.40
2019-03-18T20:15:33.835Z,15.37
2019-03-18T20:18:04.434Z,15.33
2019-03-18T20:20:34.880Z,15.28
2019-03-18T20:23:05.576Z,15.25
2019-03-18T20:25:36.183Z,15.21
2019-03-18T20:28:06.644Z,15.19
2019-03-18T20:30:37.085Z,15.15
2019-03-18T20:33:07.687Z,15.10
2019-03-18T20:35:38.246Z,15.06
2019-03-18T20:38:08.696Z,15.01
2019-03-18T20:40:39.244Z,15.00
2019-03-18T20:43:09.701Z,14.96
2019-03-18T20:45:40.207Z,14.94
2019-03-18T20:48:10.663Z,14.90
2019-03-18T20:50:41.177Z,14.84
2019-03-18T20:53:11.680Z,14.82
2019-03-18T20:55:42.159Z,14.78
2019-03-18T20:58:12.648Z,14.74
2019-03-18T21:00:43.145Z,14.69
2019-03-18T21:03:13.615Z,14.66
2019-03-18T21:05:44.114Z,14.63
2019-03-18T21:08:14.573Z,14.58
2019-03-18T21:10:45.077Z,14.52
2019-03-18T21:13:17.105Z,14.44
2019-03-18T21:15:47.715Z,14.38
2019-03-18T21:18:18.210Z,14.32
2019-03-18T21:20:48.660Z,14.26
2019-03-18T21:23:19.112Z,14.19
2019-03-18T21:25:49.619Z,14.14
2019-03-18T21:28:20.081Z,14.05
2019-03-18T21:30:50.611Z,13.98
2019-03-18T21:33:21.079Z,13.94
2019-03-18T21:35:54.670Z,13.93
2019-03-18T21:38:23.823Z,13.88
2019-03-18T21:40:54.340Z,13.84
2019-03-18T21:43:24.801Z,13.77
2019-03-18T21:45:55.258Z,13.72
2019-03-18T21:48:25.759Z,13.69
2019-03-18T21:50:56.268Z,13.68
2019-03-18T21:53:26.804Z,13.66
2019-03-18T21:55:57.270Z,13.64
2019-03-18T21:58:27.763Z,13.62
2019-03-18T22:00:58.230Z,13.61
2019-03-18T22:03:28.732Z,13.58
2019-03-18T22:06:00.907Z,13.54
2019-03-18T22:08:31.474Z,13.48
2019-03-18T22:11:01.962Z,13.33
2019-03-18T22:13:32.452Z,13.33
2019-03-18T22:16:02.899Z,13.30
2019-03-18T22:18:33.400Z,13.28
2019-03-18T22:21:03.865Z,13.15
2019-03-18T22:23:34.308Z,13.16
2019-03-18T22:26:04.871Z,13.11
2019-03-18T22:28:35.365Z,13.10
2019-03-18T22:31:05.961Z,13.08
2019-03-18T22:33:36.460Z,13.06
2019-03-18T22:36:06.921Z,12.96
2019-03-18T22:38:37.397Z,12.99
2019-03-18T22:41:07.902Z,13.02
2019-03-18T22:43:38.369Z,13.04
2019-03-18T22:46:08.881Z,12.99
2019-03-18T22:48:39.346Z,13.02
2019-03-18T22:51:09.806Z,13.04
2019-03-18T22:53:40.295Z,13.03
2019-03-18T22:56:10.745Z,12.96
2019-03-18T22:58:41.245Z,12.92
2019-03-18T23:01:14.626Z,12.17
2019-03-18T23:03:45.126Z,12.79
2019-03-18T23:06:15.718Z,12.84
2019-03-18T23:08:48.721Z,12.64
2019-03-18T23:11:18.538Z,12.59
2019-03-18T23:13:48.984Z,12.61
2019-03-18T23:16:19.482Z,12.60
2019-03-18T23:18:49.932Z,12.59
2019-03-18T23:21:20.426Z,12.55
2019-03-18T23:23:50.921Z,12.54
2019-03-18T23:26:21.377Z,12.51
2019-03-18T23:28:51.825Z,12.45
2019-03-18T23:31:22.317Z,12.43
2019-03-18T23:33:52.780Z,12.41
2019-03-18T23:36:23.315Z,12.38
2019-03-18T23:38:53.799Z,12.34
2019-03-18T23:41:24.296Z,12.31
2019-03-18T23:43:54.866Z,12.29
2019-03-18T23:46:25.374Z,12.25
2019-03-18T23:48:55.841Z,12.22
2019-03-18T23:51:26.353Z,12.19
2019-03-18T23:53:56.807Z,12.15
2019-03-18T23:56:27.300Z,12.10
2019-03-18T23:58:57.748Z,12.05
